Time;durP1;ratioP1;P1;durP2;ratioP2;P2;SDS_P1;SDS_P2;PMS_P1;PMS_P2;Temp;Humidity;BMP_temperature;BMP_pressure;BME280_temperature;BME280_humidity;BME280_pressure;Samples;Min_cycle;Max_cycle;Signal;HPM_P1;HPM_P2
2021/11/05 00:00:25;;;;;;;21.75;20.55;;;8.00;83.20;;;;;;5085336;28;20206;-74
2021/11/05 00:02:54;;;;;;;21.90;20.80;;;7.90;83.40;;;;;;5094617;28;20224;-75
2021/11/05 00:05:23;;;;;;;21.40;20.20;;;8.00;83.10;;;;;;5081176;28;20192;-74
2021/11/05 00:07:50;;;;;;;21.20;20.10;;;8.10;82.90;;;;;;5080313;28;20202;-74
2021/11/05 00:10:17;;;;;;;20.83;19.73;;;8.00;82.90;;;;;;5088104;28;20287;-74
2021/11/05 00:12:45;;;;;;;21.58;20.48;;;8.10;83.10;;;;;;5087035;28;20235;-75
2021/11/05 00:15:13;;;;;;;20.92;19.83;;;8.00;82.90;;;;;;5069421;28;20219;-74
2021/11/05 00:17:40;;;;;;;21.42;20.00;;;8.10;83.00;;;;;;5082018;28;20278;-74
2021/11/05 00:20:09;;;;;;;21.27;20.17;;;8.00;83.10;;;;;;5085739;28;20538;-74
2021/11/05 00:22:37;;;;;;;20.75;19.55;;;8.00;83.10;;;;;;5084673;28;20286;-74
2021/11/05 00:25:06;;;;;;;21.05;19.95;;;8.00;83.20;;;;;;5083704;28;20572;-74
2021/11/05 00:27:33;;;;;;;21.10;20.00;;;8.00;83.30;;;;;;5087889;28;20210;-74
2021/11/05 00:30:00;;;;;;;22.23;21.13;;;8.00;83.20;;;;;;5088630;28;20667;-75
2021/11/05 00:32:28;;;;;;;21.48;20.38;;;8.00;83.30;;;;;;5085902;28;20268;-74
2021/11/05 00:34:54;;;;;;;22.33;21.23;;;8.00;83.60;;;;;;5081961;28;20676;-74
2021/11/05 00:37:21;;;;;;;21.45;20.35;;;8.10;83.50;;;;;;5082425;28;20202;-74
2021/11/05 00:39:50;;;;;;;21.75;20.65;;;8.00;83.40;;;;;;5085922;28;20199;-74
2021/11/05 00:42:16;;;;;;;21.45;20.35;;;8.00;83.60;;;;;;5089379;28;20228;-75
2021/11/05 00:44:43;;;;;;;21.88;20.77;;;8.00;83.60;;;;;;5087591;28;20569;-74
2021/11/05 00:47:11;;;;;;;22.42;21.08;;;8.10;83.30;;;;;;5089627;28;20193;-74
2021/11/05 00:49:38;;;;;;;22.23;21.13;;;8.00;83.40;;;;;;5082180;28;20213;-74
2021/11/05 00:52:05;;;;;;;22.92;21.60;;;8.10;83.20;;;;;;5084922;28;20219;-74
2021/11/05 00:54:32;;;;;;;22.55;21.35;;;8.10;83.50;;;;;;5086806;28;20214;-73
2021/11/05 00:57:00;;;;;;;22.20;21.00;;;8.10;83.60;;;;;;5090691;28;20213;-74
2021/11/05 00:59:28;;;;;;;21.35;20.15;;;8.00;83.80;;;;;;5085799;28;20203;-74
2021/11/05 01:01:54;;;;;;;21.20;20.10;;;8.10;83.80;;;;;;5090600;28;20217;-73
2021/11/05 01:04:21;;;;;;;21.38;20.27;;;8.10;83.80;;;;;;5089544;28;20626;-74
2021/11/05 01:06:48;;;;;;;21.23;20.13;;;8.10;84.10;;;;;;5088181;28;20203;-74
2021/11/05 01:09:15;;;;;;;21.33;20.25;;;8.10;84.20;;;;;;5086031;28;20294;-74
2021/11/05 01:11:42;;;;;;;20.90;19.90;;;8.10;83.90;;;;;;5089901;28;20282;-73
2021/11/05 01:14:10;;;;;;;21.77;20.65;;;8.00;84.30;;;;;;5090286;28;20290;-73
2021/11/05 01:16:37;;;;;;;20.98;19.60;;;8.00;84.60;;;;;;5083454;28;20702;-73
2021/11/05 01:19:04;;;;;;;20.52;19.52;;;8.10;84.20;;;;;;5089913;28;20206;-73
2021/11/05 01:21:31;;;;;;;21.30;20.20;;;8.10;83.80;;;;;;5089418;28;20271;-73
2021/11/05 01:23:58;;;;;;;21.77;20.45;;;8.10;84.00;;;;;;5091658;28;20215;-73
2021/11/05 01:26:25;;;;;;;21.42;20.23;;;8.00;84.40;;;;;;5092675;28;20316;-74
2021/11/05 01:28:52;;;;;;;21.17;20.08;;;8.10;84.40;;;;;;5097342;28;20195;-73
2021/11/05 01:31:21;;;;;;;21.25;20.15;;;8.00;84.40;;;;;;5085853;28;20195;-73
2021/11/05 01:33:48;;;;;;;21.40;20.35;;;8.00;84.50;;;;;;5084927;28;20248;-74
2021/11/05 01:36:16;;;;;;;21.40;20.30;;;7.90;84.60;;;;;;5085910;28;20214;-74
2021/11/05 01:38:43;;;;;;;21.98;20.77;;;7.90;84.50;;;;;;5088915;28;20550;-74
2021/11/05 01:41:10;;;;;;;21.88;20.67;;;7.90;84.80;;;;;;5088613;28;20233;-75
2021/11/05 01:43:37;;;;;;;20.65;19.45;;;8.00;84.80;;;;;;5087725;28;20247;-74
2021/11/05 01:46:08;;;;;;;21.17;20.08;;;8.10;84.70;;;;;;5093941;28;20210;-74
2021/11/05 01:48:37;;;;;;;21.13;20.02;;;8.00;84.80;;;;;;5090003;28;20217;-74
2021/11/05 01:51:05;;;;;;;21.02;19.83;;;8.10;85.20;;;;;;5088293;28;20604;-74
2021/11/05 01:53:32;;;;;;;22.00;20.80;;;8.00;85.00;;;;;;5089627;28;20207;-74
2021/11/05 01:56:00;;;;;;;21.42;20.23;;;7.90;85.80;;;;;;5077561;28;20223;-74
2021/11/05 01:58:27;;;;;;;21.38;20.25;;;7.90;86.40;;;;;;5088002;27;20227;-75
2021/11/05 02:00:54;;;;;;;20.73;19.70;;;7.90;86.30;;;;;;5088093;28;20202;-74
2021/11/05 02:03:20;;;;;;;21.88;20.60;;;7.90;86.80;;;;;;5089782;28;20219;-74
2021/11/05 02:05:51;;;;;;;22.17;21.08;;;7.80;86.80;;;;;;5087828;28;20195;-74
2021/11/05 02:08:20;;;;;;;21.60;20.40;;;8.00;86.80;;;;;;5086610;28;20206;-74
2021/11/05 02:10:49;;;;;;;20.77;19.58;;;8.00;86.40;;;;;;5079566;28;20209;-74
2021/11/05 02:13:17;;;;;;;21.15;19.95;;;7.90;86.70;;;;;;5084116;27;20688;-74
2021/11/05 02:15:47;;;;;;;22.25;21.05;;;7.90;86.90;;;;;;5093035;28;20223;-74
2021/11/05 02:18:15;;;;;;;21.23;19.92;;;7.90;87.60;;;;;;5088007;28;20191;-74
2021/11/05 02:20:42;;;;;;;20.70;19.67;;;7.90;87.60;;;;;;5089738;28;20655;-74
2021/11/05 02:23:11;;;;;;;20.40;19.40;;;7.90;87.90;;;;;;5088877;28;20223;-75
2021/11/05 02:25:38;;;;;;;209.32;34.63;;;8.00;87.40;;;;;;5084431;28;20214;-75
2021/11/05 02:28:07;;;;;;;20.92;19.83;;;7.90;90.80;;;;;;5089073;28;20286;-74
2021/11/05 02:30:34;;;;;;;20.23;19.23;;;7.90;90.10;;;;;;5086192;28;21404;-74
2021/11/05 02:33:01;;;;;;;20.25;19.23;;;7.80;89.40;;;;;;5085974;28;22396;-74
2021/11/05 02:35:28;;;;;;;20.23;19.23;;;7.80;89.60;;;;;;5079230;28;20211;-74
2021/11/05 02:37:55;;;;;;;20.40;19.40;;;7.70;89.20;;;;;;5088211;28;20191;-74
2021/11/05 02:40:23;;;;;;;22.20;20.88;;;7.80;89.40;;;;;;5087157;28;20275;-76
2021/11/05 02:42:50;;;;;;;21.50;20.40;;;7.90;88.90;;;;;;5082468;28;20207;-75
2021/11/05 02:45:18;;;;;;;20.70;19.70;;;7.80;89.30;;;;;;5087476;28;20215;-73
2021/11/05 02:47:44;;;;;;;21.00;19.90;;;7.90;88.90;;;;;;5091860;28;20195;-74
2021/11/05 02:50:14;;;;;;;20.55;19.55;;;7.90;88.00;;;;;;5087903;28;20534;-74
2021/11/05 02:52:41;;;;;;;21.25;20.15;;;7.80;88.20;;;;;;5084946;28;20215;-74
2021/11/05 02:55:10;;;;;;;19.75;18.75;;;7.80;88.50;;;;;;5086792;28;20206;-73
2021/11/05 02:57:39;;;;;;;20.35;19.25;;;7.80;89.40;;;;;;5089271;28;20190;-73
2021/11/05 03:00:08;;;;;;;21.25;20.00;;;7.90;89.40;;;;;;5085972;28;20668;-73
2021/11/05 03:02:35;;;;;;;21.15;20.08;;;7.90;88.70;;;;;;5086920;28;20219;-73
2021/11/05 03:05:02;;;;;;;21.25;20.15;;;7.80;88.60;;;;;;5084488;28;20203;-73
2021/11/05 03:07:29;;;;;;;20.95;19.85;;;7.80;88.30;;;;;;5088141;28;20282;-73
2021/11/05 03:09:56;;;;;;;72.90;23.38;;;7.80;88.30;;;;;;5084542;28;20215;-74
2021/11/05 03:12:23;;;;;;;20.27;19.17;;;7.90;88.50;;;;;;5082109;28;20627;-73
2021/11/05 03:14:52;;;;;;;21.38;20.17;;;7.80;89.10;;;;;;5086515;28;20206;-73
2021/11/05 03:17:18;;;;;;;19.77;18.77;;;7.80;89.30;;;;;;5088699;28;20313;-73
2021/11/05 03:19:45;;;;;;;20.45;19.35;;;7.70;89.20;;;;;;5085586;28;20282;-73
2021/11/05 03:22:13;;;;;;;20.75;19.65;;;7.70;89.20;;;;;;5088196;28;20314;-74
2021/11/05 03:24:39;;;;;;;21.55;20.45;;;7.80;89.30;;;;;;5085811;28;20206;-73
2021/11/05 03:27:07;;;;;;;20.27;19.17;;;7.80;89.70;;;;;;5088099;28;20640;-74
2021/11/05 03:29:34;;;;;;;20.67;19.38;;;7.70;90.80;;;;;;5086229;28;20231;-74
2021/11/05 03:32:03;;;;;;;19.90;18.90;;;7.80;90.50;;;;;;5088130;28;20229;-73
2021/11/05 03:34:30;;;;;;;20.00;18.70;;;7.80;89.80;;;;;;5085645;28;20200;-73
2021/11/05 03:36:57;;;;;;;20.52;19.52;;;7.80;89.60;;;;;;5085362;28;20302;-74
2021/11/05 03:39:24;;;;;;;21.02;20.02;;;7.80;89.40;;;;;;5082833;28;20250;-75
2021/11/05 03:41:51;;;;;;;20.75;19.75;;;7.80;89.10;;;;;;5087483;28;20356;-74
2021/11/05 03:44:18;;;;;;;19.80;18.80;;;7.80;88.80;;;;;;5086730;28;20614;-75
2021/11/05 03:46:45;;;;;;;19.58;18.50;;;7.80;88.50;;;;;;5081272;28;20204;-74
2021/11/05 03:49:13;;;;;;;20.05;19.05;;;7.80;88.90;;;;;;5087077;28;20198;-75
2021/11/05 03:51:40;;;;;;;21.10;20.00;;;7.80;88.80;;;;;;5086745;28;20278;-74
2021/11/05 03:54:07;;;;;;;19.80;18.80;;;7.80;88.80;;;;;;5087633;28;20195;-74
2021/11/05 03:56:35;;;;;;;19.90;18.67;;;7.80;88.50;;;;;;5085851;28;20708;-74
2021/11/05 03:59:02;;;;;;;20.27;19.27;;;7.70;89.10;;;;;;5086654;28;20881;-74
2021/11/05 04:01:32;;;;;;;20.98;19.98;;;7.80;89.30;;;;;;5087476;28;20207;-74
2021/11/05 04:03:59;;;;;;;20.55;19.38;;;7.90;88.40;;;;;;5086195;28;20199;-74
2021/11/05 04:06:27;;;;;;;18.80;17.90;;;7.80;89.00;;;;;;5089209;28;20188;-74
2021/11/05 04:08:54;;;;;;;19.65;18.65;;;7.80;88.70;;;;;;5093818;28;20199;-74
2021/11/05 04:11:21;;;;;;;20.48;19.48;;;7.80;88.50;;;;;;5079750;28;20210;-75
2021/11/05 04:13:48;;;;;;;22.25;21.05;;;7.80;88.80;;;;;;5092381;28;20239;-74
2021/11/05 04:16:16;;;;;;;19.98;18.90;;;7.80;88.90;;;;;;5086042;28;20631;-76
2021/11/05 04:18:43;;;;;;;21.55;20.40;;;7.80;89.20;;;;;;5094399;28;20198;-74
2021/11/05 04:21:10;;;;;;;21.40;20.30;;;7.80;89.30;;;;;;5090924;28;20196;-74
2021/11/05 04:23:38;;;;;;;20.58;19.48;;;7.80;89.40;;;;;;5094825;28;20221;-75
2021/11/05 04:26:05;;;;;;;22.45;21.20;;;7.80;89.60;;;;;;5088922;28;20199;-74
2021/11/05 04:28:33;;;;;;;20.27;19.17;;;7.80;89.80;;;;;;5095852;28;20198;-74
2021/11/05 04:31:00;;;;;;;22.13;20.60;;;7.80;89.80;;;;;;5094927;28;20210;-75
2021/11/05 04:33:30;;;;;;;21.60;20.50;;;7.80;89.60;;;;;;5080819;28;20265;-74
2021/11/05 04:35:57;;;;;;;21.20;20.10;;;7.80;89.50;;;;;;5089332;28;20745;-74
2021/11/05 04:38:25;;;;;;;19.80;18.70;;;7.80;89.20;;;;;;5091531;28;20281;-74
2021/11/05 04:40:53;;;;;;;19.77;18.77;;;7.90;88.80;;;;;;5087612;28;20238;-75
2021/11/05 04:43:20;;;;;;;21.40;20.30;;;7.90;88.40;;;;;;5092466;28;20219;-74
2021/11/05 04:45:47;;;;;;;21.25;20.15;;;7.80;88.70;;;;;;5087043;28;20198;-74
2021/11/05 04:48:14;;;;;;;20.58;19.58;;;7.90;88.70;;;;;;5089869;28;20210;-74
2021/11/05 04:50:41;;;;;;;20.95;19.92;;;8.00;88.20;;;;;;5089535;28;20202;-74
2021/11/05 04:53:08;;;;;;;19.70;18.70;;;7.90;88.40;;;;;;5092764;28;20250;-74
2021/11/05 04:55:35;;;;;;;22.33;20.67;;;7.90;88.80;;;;;;5087136;28;20196;-74
2021/11/05 04:58:04;;;;;;;20.23;19.33;;;7.90;89.10;;;;;;5088446;28;20215;-75
2021/11/05 05:00:31;;;;;;;19.50;18.50;;;8.00;88.80;;;;;;5085418;28;20867;-74
2021/11/05 05:02:57;;;;;;;21.17;19.98;;;7.90;88.40;;;;;;5088711;28;20215;-75
2021/11/05 05:05:25;;;;;;;21.58;20.50;;;7.90;88.30;;;;;;5087671;28;20199;-76
2021/11/05 05:07:52;;;;;;;20.95;19.90;;;7.80;88.70;;;;;;5088814;28;20203;-75
2021/11/05 05:10:19;;;;;;;19.60;18.55;;;8.00;88.40;;;;;;5087012;28;20204;-74
2021/11/05 05:12:46;;;;;;;19.67;18.73;;;8.10;88.00;;;;;;5085770;28;20326;-75
2021/11/05 05:15:16;;;;;;;20.48;19.48;;;8.10;88.00;;;;;;5087797;28;20222;-74
2021/11/05 05:17:44;;;;;;;19.35;18.35;;;8.10;87.90;;;;;;5082223;28;20259;-74
2021/11/05 05:20:13;;;;;;;19.90;18.90;;;8.10;87.80;;;;;;5087409;28;20203;-76
2021/11/05 05:22:40;;;;;;;18.75;17.85;;;8.10;88.10;;;;;;5085514;28;20305;-74
2021/11/05 05:25:09;;;;;;;20.10;19.02;;;8.00;88.40;;;;;;5076314;28;20202;-74
2021/11/05 05:27:36;;;;;;;19.35;18.25;;;8.00;88.80;;;;;;5088379;28;20686;-74
2021/11/05 05:30:05;;;;;;;19.20;18.20;;;8.00;88.70;;;;;;5088280;28;20195;-75
2021/11/05 05:32:33;;;;;;;18.55;17.65;;;8.00;87.80;;;;;;5087024;28;20219;-74
2021/11/05 05:35:00;;;;;;;18.92;17.95;;;7.90;88.20;;;;;;5087430;28;20199;-74
2021/11/05 05:37:27;;;;;;;20.60;19.60;;;7.90;88.50;;;;;;5089562;28;20219;-74
2021/11/05 05:39:54;;;;;;;20.33;19.33;;;8.00;88.40;;;;;;5089367;28;20314;-74
2021/11/05 05:42:21;;;;;;;19.63;18.63;;;8.00;88.40;;;;;;5089620;28;20758;-75
2021/11/05 05:44:48;;;;;;;19.15;18.25;;;7.90;88.80;;;;;;5084783;28;20200;-75
2021/11/05 05:47:15;;;;;;;21.42;20.25;;;7.80;89.10;;;;;;5087166;28;20195;-75
2021/11/05 05:49:43;;;;;;;20.33;19.33;;;7.70;89.40;;;;;;5088035;28;20235;-74
2021/11/05 05:52:10;;;;;;;18.88;17.92;;;7.80;89.40;;;;;;5086767;28;20215;-74
2021/11/05 05:54:37;;;;;;;19.77;18.77;;;7.90;89.30;;;;;;5085965;28;20201;-74
2021/11/05 05:57:04;;;;;;;19.05;18.15;;;7.80;89.30;;;;;;5087861;28;20322;-74
2021/11/05 05:59:31;;;;;;;20.38;19.38;;;7.90;89.30;;;;;;5087649;28;20289;-74
2021/11/05 06:01:58;;;;;;;20.50;19.50;;;7.90;89.20;;;;;;5087894;28;20215;-74
2021/11/05 06:04:26;;;;;;;18.90;17.95;;;8.00;89.20;;;;;;5087181;28;20222;-73
2021/11/05 06:06:55;;;;;;;20.05;19.05;;;7.90;90.40;;;;;;5087236;28;20641;-78
2021/11/05 06:09:22;;;;;;;22.30;21.10;;;8.00;89.90;;;;;;5083554;28;20200;-73
2021/11/05 06:11:49;;;;;;;19.92;18.92;;;8.10;89.30;;;;;;5085992;28;20538;-73
2021/11/05 06:14:16;;;;;;;20.80;19.70;;;8.00;90.00;;;;;;5087560;28;20622;-74
2021/11/05 06:16:43;;;;;;;20.70;19.13;;;8.00;89.90;;;;;;5077316;28;20621;-74
2021/11/05 06:19:10;;;;;;;21.40;20.20;;;8.10;89.30;;;;;;5079214;28;20308;-73
2021/11/05 06:21:37;;;;;;;24.67;23.38;;;8.10;89.30;;;;;;5087024;28;20278;-73
2021/11/05 06:24:06;;;;;;;20.90;19.70;;;8.10;89.00;;;;;;5088687;27;20203;-74
2021/11/05 06:26:33;;;;;;;21.73;20.60;;;8.00;89.20;;;;;;5087102;28;20644;-74
2021/11/05 06:29:02;;;;;;;21.20;20.05;;;8.00;89.30;;;;;;5088828;28;20192;-73
2021/11/05 06:31:30;;;;;;;22.00;20.80;;;8.10;88.80;;;;;;5083554;28;20192;-73
2021/11/05 06:33:57;;;;;;;19.50;18.50;;;8.00;88.50;;;;;;5087897;28;20226;-73
2021/11/05 06:36:24;;;;;;;21.92;20.73;;;8.00;89.30;;;;;;5086976;28;20278;-73
2021/11/05 06:38:51;;;;;;;22.75;21.45;;;8.10;88.80;;;;;;5088328;28;20195;-72
2021/11/05 06:41:20;;;;;;;22.42;21.33;;;8.00;88.80;;;;;;5085999;28;20258;-74
2021/11/05 06:43:47;;;;;;;22.83;21.63;;;8.10;88.40;;;;;;5082999;28;20231;-74
2021/11/05 06:46:14;;;;;;;20.63;19.52;;;8.10;88.40;;;;;;5083202;28;20259;-73
2021/11/05 06:48:41;;;;;;;23.35;22.15;;;8.10;88.50;;;;;;5085097;28;20536;-73
2021/11/05 06:51:08;;;;;;;23.75;22.30;;;8.10;88.80;;;;;;5088496;28;20278;-74
2021/11/05 06:53:35;;;;;;;22.63;21.50;;;8.20;88.40;;;;;;5087684;28;20222;-73
2021/11/05 06:56:03;;;;;;;22.90;21.70;;;8.30;88.30;;;;;;5087223;28;20298;-74
2021/11/05 06:58:35;;;;;;;20.90;19.80;;;8.20;88.70;;;;;;5088540;28;20239;-74
2021/11/05 07:01:02;;;;;;;21.52;20.33;;;8.30;89.10;;;;;;5085831;28;20225;-75
2021/11/05 07:03:29;;;;;;;20.90;19.90;;;8.20;89.00;;;;;;5096856;28;20576;-73
2021/11/05 07:05:58;;;;;;;22.05;20.95;;;8.20;89.70;;;;;;5083978;28;20274;-74
2021/11/05 07:08:25;;;;;;;21.20;20.00;;;8.20;89.80;;;;;;5088552;28;20192;-74
2021/11/05 07:10:52;;;;;;;22.13;20.95;;;8.20;89.80;;;;;;5078742;28;20205;-76
2021/11/05 07:13:19;;;;;;;21.98;20.67;;;8.30;89.70;;;;;;5080429;28;20716;-75
2021/11/05 07:15:48;;;;;;;22.10;20.45;;;8.30;89.30;;;;;;5087520;28;20199;-75
2021/11/05 07:18:15;;;;;;;20.67;19.58;;;8.40;89.00;;;;;;5077932;28;20219;-73
2021/11/05 07:20:43;;;;;;;22.35;21.02;;;8.40;89.20;;;;;;5086253;28;20829;-72
2021/11/05 07:23:11;;;;;;;21.42;20.13;;;8.50;88.60;;;;;;5084082;28;20207;-72
2021/11/05 07:25:38;;;;;;;25.05;23.45;;;8.50;88.40;;;;;;5079686;28;20273;-72
2021/11/05 07:28:05;;;;;;;23.25;21.50;;;8.40;88.60;;;;;;5076358;28;20192;-72
2021/11/05 07:30:32;;;;;;;23.35;21.67;;;8.50;88.70;;;;;;5076884;28;20202;-73
2021/11/05 07:33:01;;;;;;;21.48;20.13;;;8.50;88.30;;;;;;5073015;28;20233;-72
2021/11/05 07:35:28;;;;;;;60.15;23.67;;;8.50;88.80;;;;;;5075437;28;20828;-73
2021/11/05 07:37:55;;;;;;;19.88;18.75;;;8.40;90.50;;;;;;5084635;28;20219;-75
2021/11/05 07:40:23;;;;;;;22.13;20.95;;;8.50;91.90;;;;;;5082541;28;20226;-74
2021/11/05 07:42:50;;;;;;;21.58;20.48;;;8.60;90.30;;;;;;5086065;27;20302;-74
2021/11/05 07:45:18;;;;;;;22.40;21.00;;;8.60;89.80;;;;;;5085843;28;20290;-74
2021/11/05 07:47:48;;;;;;;22.05;20.85;;;8.50;89.10;;;;;;5090523;28;20196;-73
2021/11/05 07:50:18;;;;;;;22.73;21.42;;;8.60;89.30;;;;;;5078453;28;20203;-73
2021/11/05 07:52:46;;;;;;;54.83;22.67;;;8.60;89.50;;;;;;5086662;28;20277;-74
2021/11/05 07:55:13;;;;;;;22.50;21.30;;;8.60;90.20;;;;;;5083270;28;20253;-74
2021/11/05 07:57:41;;;;;;;21.48;20.35;;;8.60;91.50;;;;;;5091639;28;20531;-73
2021/11/05 08:00:13;;;;;;;21.35;20.25;;;8.80;90.40;;;;;;5086423;28;20204;-75
2021/11/05 08:02:40;;;;;;;289.23;52.33;;;8.80;90.60;;;;;;5085788;28;20242;-77
2021/11/05 08:05:09;;;;;;;20.35;19.25;;;8.80;91.60;;;;;;5082086;28;20195;-74
2021/11/05 08:07:38;;;;;;;209.75;36.25;;;8.90;91.20;;;;;;5091989;28;20199;-75
2021/11/05 08:10:06;;;;;;;22.75;21.38;;;8.90;91.60;;;;;;5084565;28;20254;-79
2021/11/05 08:12:34;;;;;;;21.13;20.00;;;9.00;92.20;;;;;;5090659;28;20310;-79
2021/11/05 08:15:01;;;;;;;22.05;20.85;;;9.00;91.80;;;;;;5092232;28;20202;-74
2021/11/05 08:17:28;;;;;;;23.10;21.87;;;9.10;90.80;;;;;;5092303;28;20234;-74
2021/11/05 08:19:55;;;;;;;23.47;22.17;;;9.20;88.90;;;;;;5091929;28;20484;-75
2021/11/05 08:22:22;;;;;;;21.70;20.60;;;9.10;88.50;;;;;;5091698;28;20469;-73
2021/11/05 08:24:52;;;;;;;22.00;20.70;;;9.30;88.00;;;;;;5087988;28;20208;-75
2021/11/05 08:27:22;;;;;;;25.15;23.70;;;9.20;85.30;;;;;;5082101;28;20469;-74
2021/11/05 08:29:51;;;;;;;22.60;21.37;;;9.30;85.00;;;;;;5088910;28;20196;-76
2021/11/05 08:32:19;;;;;;;22.52;21.35;;;9.40;85.20;;;;;;5088374;28;20981;-72
2021/11/05 08:34:46;;;;;;;23.30;21.80;;;9.40;83.90;;;;;;5088506;28;20288;-73
2021/11/05 08:37:13;;;;;;;23.80;22.50;;;9.50;84.00;;;;;;5091282;28;20528;-73
2021/11/05 08:39:40;;;;;;;22.10;20.90;;;9.70;83.70;;;;;;5070737;28;20460;-73
2021/11/05 08:42:09;;;;;;;21.67;20.57;;;9.70;82.90;;;;;;5086717;28;20559;-73
2021/11/05 08:44:36;;;;;;;22.87;21.57;;;9.80;82.70;;;;;;5084135;28;20457;-72
2021/11/05 08:47:04;;;;;;;23.42;22.23;;;9.60;82.60;;;;;;5089714;28;20480;-72
2021/11/05 08:49:31;;;;;;;24.08;22.83;;;9.70;82.70;;;;;;5090807;28;20532;-72
2021/11/05 08:51:58;;;;;;;21.77;20.67;;;9.60;82.40;;;;;;5086674;28;20311;-73
2021/11/05 08:54:26;;;;;;;22.35;21.25;;;9.50;82.50;;;;;;5087877;28;20819;-73
2021/11/05 08:56:53;;;;;;;21.63;20.53;;;9.50;82.80;;;;;;5089716;28;20245;-72
2021/11/05 08:59:24;;;;;;;23.60;22.10;;;9.50;83.50;;;;;;5089260;28;20477;-73
2021/11/05 09:01:52;;;;;;;21.50;20.40;;;9.70;83.30;;;;;;5090337;28;20476;-73
2021/11/05 09:04:19;;;;;;;21.67;20.57;;;9.70;84.00;;;;;;5089192;28;20199;-73
2021/11/05 09:06:47;;;;;;;21.40;20.40;;;9.90;82.20;;;;;;5088587;28;20463;-73
2021/11/05 09:09:15;;;;;;;24.67;23.40;;;10.00;82.10;;;;;;5089880;28;20804;-72
2021/11/05 09:11:42;;;;;;;23.33;22.13;;;9.90;81.60;;;;;;5087009;28;20564;-73
2021/11/05 09:14:09;;;;;;;21.77;20.67;;;9.90;81.60;;;;;;5089115;28;20461;-74
2021/11/05 09:16:37;;;;;;;22.27;20.93;;;10.00;81.40;;;;;;5088625;28;20456;-72
2021/11/05 09:19:04;;;;;;;21.53;20.43;;;10.20;81.20;;;;;;5088647;28;21073;-73
2021/11/05 09:21:33;;;;;;;24.90;23.60;;;10.60;80.40;;;;;;5088807;28;20457;-73
2021/11/05 09:24:00;;;;;;;21.93;20.80;;;10.70;78.90;;;;;;5089189;28;20461;-73
2021/11/05 09:26:27;;;;;;;22.77;21.57;;;10.70;79.20;;;;;;5096268;27;20815;-72
2021/11/05 09:28:54;;;;;;;22.93;21.70;;;10.90;79.80;;;;;;5089621;28;20544;-73
2021/11/05 09:31:21;;;;;;;21.93;20.83;;;11.00;80.60;;;;;;5087316;28;20468;-72
2021/11/05 09:33:50;;;;;;;21.50;20.40;;;11.20;81.10;;;;;;5089092;28;20499;-73
2021/11/05 09:36:17;;;;;;;23.00;21.70;;;11.40;81.70;;;;;;5093481;28;20818;-73
2021/11/05 09:38:44;;;;;;;22.10;20.90;;;11.20;79.60;;;;;;5089144;28;20481;-73
2021/11/05 09:41:11;;;;;;;24.30;23.10;;;11.10;78.40;;;;;;5087448;28;20457;-73
2021/11/05 09:43:41;;;;;;;27.67;26.27;;;11.00;78.20;;;;;;5087886;28;20472;-73
2021/11/05 09:46:08;;;;;;;24.83;23.53;;;11.00;78.10;;;;;;5088763;28;21020;-74
2021/11/05 09:48:37;;;;;;;26.97;25.47;;;10.80;79.20;;;;;;5084465;28;20965;-73
2021/11/05 09:51:07;;;;;;;24.57;23.20;;;10.80;79.80;;;;;;5088785;28;20935;-72
2021/11/05 09:53:37;;;;;;;24.60;23.20;;;10.80;79.70;;;;;;5090929;28;20483;-72
2021/11/05 09:56:07;;;;;;;23.27;22.17;;;10.70;81.50;;;;;;5087089;28;20532;-72
2021/11/05 09:58:37;;;;;;;21.70;20.60;;;10.60;80.50;;;;;;5077409;28;20549;-73
2021/11/05 10:01:04;;;;;;;23.40;22.20;;;10.50;83.00;;;;;;5085675;28;20469;-72
2021/11/05 10:03:31;;;;;;;25.30;23.97;;;10.70;82.00;;;;;;5085518;28;21022;-73
2021/11/05 10:05:59;;;;;;;21.60;20.50;;;10.70;80.80;;;;;;5079679;28;20484;-72
2021/11/05 10:08:29;;;;;;;24.13;22.83;;;10.70;80.30;;;;;;5082910;28;20541;-72
2021/11/05 10:10:56;;;;;;;23.90;22.60;;;10.80;79.40;;;;;;5082938;28;20510;-72
2021/11/05 10:13:25;;;;;;;24.80;23.50;;;10.60;79.70;;;;;;5088339;28;20481;-73
2021/11/05 10:15:54;;;;;;;24.50;23.20;;;10.60;79.70;;;;;;5082914;28;20558;-72
2021/11/05 10:18:23;;;;;;;26.00;24.40;;;10.80;79.30;;;;;;5087979;28;20617;-72
2021/11/05 10:21:07;;;;;;;24.30;22.90;;;11.00;78.40;;;;;;5075994;28;20489;-74
2021/11/05 10:23:36;;;;;;;26.43;25.03;;;11.10;78.00;;;;;;5087749;28;20530;-74
2021/11/05 10:26:04;;;;;;;25.03;23.73;;;11.10;79.50;;;;;;5089213;28;20487;-74
2021/11/05 10:28:31;;;;;;;24.33;22.97;;;11.00;81.00;;;;;;5084404;28;20831;-74
2021/11/05 10:31:01;;;;;;;25.53;24.23;;;11.10;79.10;;;;;;5083257;28;20562;-75
2021/11/05 10:33:31;;;;;;;24.23;22.83;;;11.40;77.80;;;;;;5082609;28;20564;-73
2021/11/05 10:36:04;;;;;;;25.23;23.93;;;11.40;77.30;;;;;;5084819;28;20457;-75
2021/11/05 10:38:33;;;;;;;24.77;23.47;;;11.60;76.60;;;;;;5085658;28;20473;-74
2021/11/05 10:41:03;;;;;;;26.60;25.20;;;11.70;75.90;;;;;;5079819;28;20990;-74
2021/11/05 10:43:34;;;;;;;25.60;24.10;;;11.80;75.40;;;;;;5083261;28;20477;-73
2021/11/05 10:46:01;;;;;;;26.00;24.70;;;11.70;76.20;;;;;;5085797;28;20556;-74
2021/11/05 10:48:30;;;;;;;25.30;23.90;;;11.60;75.90;;;;;;5084146;28;20880;-74
2021/11/05 10:50:59;;;;;;;24.77;23.47;;;11.70;75.90;;;;;;5075531;28;20824;-75
2021/11/05 10:53:31;;;;;;;25.27;23.80;;;11.60;76.00;;;;;;5087575;28;20530;-75
2021/11/05 10:56:00;;;;;;;26.90;25.10;;;11.50;76.50;;;;;;5078963;28;20515;-75
2021/11/05 10:58:30;;;;;;;23.23;22.03;;;11.30;77.20;;;;;;5087206;28;20477;-74
2021/11/05 11:00:59;;;;;;;27.60;25.80;;;11.20;76.80;;;;;;5085454;28;20462;-74
2021/11/05 11:03:31;;;;;;;26.00;24.40;;;10.90;79.60;;;;;;5086754;28;20479;-75
2021/11/05 11:06:00;;;;;;;25.30;23.90;;;11.00;78.00;;;;;;5086163;28;20696;-77
2021/11/05 11:08:29;;;;;;;24.80;23.40;;;10.80;77.60;;;;;;5086276;28;20898;-77
2021/11/05 11:10:59;;;;;;;24.97;23.57;;;10.70;78.10;;;;;;5082567;28;20544;-75
2021/11/05 11:13:38;;;;;;;25.80;24.30;;;10.60;78.80;;;;;;5079394;28;20572;-75
2021/11/05 11:16:08;;;;;;;26.57;25.00;;;10.40;80.10;;;;;;5083526;28;20536;-75
2021/11/05 11:18:50;;;;;;;25.40;24.00;;;10.20;81.20;;;;;;5082154;28;20557;-76
2021/11/05 11:21:17;;;;;;;27.77;25.40;;;10.30;81.20;;;;;;5086303;28;20458;-78
2021/11/05 11:23:45;;;;;;;25.50;24.10;;;10.10;81.40;;;;;;5086392;28;20487;-79
2021/11/05 11:26:12;;;;;;;26.27;24.77;;;10.20;80.50;;;;;;5085573;28;20460;-73
2021/11/05 11:28:42;;;;;;;28.10;26.40;;;10.20;81.20;;;;;;5085839;28;20537;-75
2021/11/05 11:31:11;;;;;;;26.90;25.40;;;10.40;80.60;;;;;;5085322;28;20474;-76
2021/11/05 11:33:38;;;;;;;27.83;26.23;;;10.50;80.40;;;;;;5083443;28;21018;-74
2021/11/05 11:36:05;;;;;;;27.33;25.60;;;10.60;80.00;;;;;;5083854;28;20468;-74
2021/11/05 11:38:34;;;;;;;25.90;24.40;;;10.70;80.10;;;;;;5083330;28;20481;-74
2021/11/05 11:41:01;;;;;;;27.30;25.70;;;10.80;79.60;;;;;;5090881;28;20577;-72
2021/11/05 11:43:31;;;;;;;29.17;27.57;;;10.90;78.10;;;;;;5083552;28;20477;-73
2021/11/05 11:46:01;;;;;;;27.30;25.80;;;11.00;78.10;;;;;;5082780;28;20514;-73
2021/11/05 11:48:52;;;;;;;27.87;26.37;;;11.10;77.80;;;;;;5085510;28;20457;-74
2021/11/05 11:51:34;;;;;;;29.03;27.03;;;11.10;77.20;;;;;;5076498;28;20457;-74
2021/11/05 11:54:23;;;;;;;26.50;25.10;;;11.30;77.30;;;;;;5088027;28;20527;-72
2021/11/05 11:56:52;;;;;;;26.83;25.23;;;11.20;76.20;;;;;;5078427;28;20449;-73
2021/11/05 11:59:28;;;;;;;28.70;27.10;;;11.10;76.50;;;;;;5087673;28;21201;-73
2021/11/05 12:01:56;;;;;;;27.17;25.57;;;11.20;77.20;;;;;;5087494;28;20849;-73
2021/11/05 12:04:33;;;;;;;27.20;25.60;;;11.40;76.40;;;;;;5085114;28;20449;-73
2021/11/05 12:07:07;;;;;;;27.77;26.20;;;11.50;75.30;;;;;;5073840;28;20841;-75
2021/11/05 12:09:36;;;;;;;28.30;26.70;;;11.40;75.70;;;;;;5086145;28;20448;-73
2021/11/05 12:12:33;;;;;;;27.07;25.47;;;11.40;75.30;;;;;;5085354;28;20517;-71
2021/11/05 12:15:16;;;;;;;28.23;26.60;;;11.50;75.80;;;;;;5084937;28;20510;-72
2021/11/05 12:18:07;;;;;;;28.53;26.63;;;11.60;75.20;;;;;;5084012;28;21032;-73
2021/11/05 12:20:49;;;;;;;29.60;27.80;;;11.70;72.60;;;;;;5086107;28;20502;-73
2021/11/05 12:23:26;;;;;;;28.60;26.80;;;11.70;73.40;;;;;;5086928;28;20488;-73
2021/11/05 12:25:59;;;;;;;27.80;26.20;;;11.70;72.80;;;;;;5085968;28;20457;-72
2021/11/05 12:28:38;;;;;;;27.20;25.63;;;11.80;72.30;;;;;;5088222;28;20446;-72
2021/11/05 12:31:35;;;;;;;27.40;25.90;;;11.80;72.00;;;;;;5087448;28;20878;-72
2021/11/05 12:34:27;;;;;;;28.53;26.77;;;11.70;72.70;;;;;;5052178;28;20477;-76
2021/11/05 12:36:57;;;;;;;29.10;27.47;;;11.50;73.30;;;;;;5088199;28;20514;-74
2021/11/05 12:39:30;;;;;;;27.93;26.37;;;11.00;73.90;;;;;;5086540;28;20480;-74